Darstellungsparameter: Aktuell verwendete Einstellungen:
Skalierung der Graphiken ... ?
xyx+y,   Skalierungsfaktor:      Skalierung: Modus: x, Faktor: 1
Darstellungszeitraum ... ?
Vom - - bis: - -   Zeitraum: 10.05.2005 - 12.05.2005
Min/Max/Avg-Anzeige ... ?
Zeige MMA aktuell
Zeige MMA Monat
Zeige MMA alles
Zeige --A aktuell
Zeige --A Monat
Zeige --A alles
Keine MMA-Anzeige
MMA:
Average (ber die Originaldaten)
MMA-Basis: 10.05.2005 - 12.05.2005
Quicknavigation für Darstellung... ?
Tage:      1T, 2T, 3T, 5T -1T -2T -3T -5T +1T +2T +3T +5T
Wochen: 1W, 2W, 3W -1W -2W -3W +1W +2W +3W
Monate: 1M, 3M, 6M -1M -3M -6M +1M +3M +6M
Jahre:    1J, 3J, 5J, 10J -1J -3J -5J -10J +1J +3J +5J +10J
Nutze für die Darstellung ... ?
Originaldaten oder Mittelwerte auf ...
Stundenbasis Tagesbasis Wochenbasis
Monatsbasis Jahresbasis      Datenbasis: Original-Daten
Darstellen als:
Statistik (Auto) Statistik J:M      Darstellung:
Zur Graphik,    zurück zur Übersicht aller Sensoren.
 
Tabellarische Datenbersicht: ?
 
Sensor: Nr:Datum:Temp:Abs-Feuchte:Windchill:Wind:
Aussen-T/F 1 10-05-2005 00:06:02 5.5 C 6.04 g/m*3 5.5 C 0 km/h
2 10-05-2005 00:18:02 5.5 C 6.04 g/m*3 5.5 C 0 km/h
3 10-05-2005 00:30:02 5.5 C 6.04 g/m*3 5.5 C 0 km/h
4 10-05-2005 00:42:02 5.3 C 6.03 g/m*3 5.3 C 0 km/h
5 10-05-2005 00:54:01 5.1 C 5.95 g/m*3 5.1 C 0 km/h
6 10-05-2005 01:06:01 4.9 C 5.94 g/m*3 4.9 C 0 km/h
7 10-05-2005 01:18:01 4.7 C 5.93 g/m*3 4.7 C 0 km/h
8 10-05-2005 01:30:01 4.6 C 5.89 g/m*3 4.6 C 0 km/h
9 10-05-2005 01:42:02 4.5 C 5.92 g/m*3 4.5 C 0 km/h
10 10-05-2005 01:54:02 4.3 C 5.77 g/m*3 4.3 C 0 km/h
11 10-05-2005 02:06:02 4.2 C 5.73 g/m*3 4.2 C 0 km/h
12 10-05-2005 02:18:02 4 C 5.66 g/m*3 4 C 0 km/h
13 10-05-2005 02:30:02 4.1 C 5.76 g/m*3 4.1 C 0 km/h
14 10-05-2005 02:42:02 4 C 5.79 g/m*3 4 C 0 km/h
15 10-05-2005 02:55:03 3.8 C 5.71 g/m*3 3.8 C 0 km/h
16 10-05-2005 03:07:03 3.6 C 5.63 g/m*3 3.6 C 0 km/h
17 10-05-2005 03:19:03 3.7 C 5.67 g/m*3 3.7 C 0 km/h
18 10-05-2005 03:31:03 3.6 C 5.69 g/m*3 3.6 C 0 km/h
19 10-05-2005 03:43:03 3.4 C 5.62 g/m*3 3.4 C 0 km/h
20 10-05-2005 03:55:03 3.4 C 5.62 g/m*3 3.4 C 0 km/h
21 10-05-2005 04:07:02 3.5 C 5.66 g/m*3 3.5 C 0 km/h
22 10-05-2005 04:19:02 3.3 C 5.58 g/m*3 3.3 C 0 km/h
23 10-05-2005 04:31:03 3 C 5.47 g/m*3 3 C 0 km/h
24 10-05-2005 04:43:03 3.3 C 5.58 g/m*3 3.3 C 0 km/h
25 10-05-2005 04:55:03 3 C 5.47 g/m*3 3 C 0 km/h
Sensor: Nr:Datum:Temp:Abs-Feuchte:Windchill:Wind:
Aussen-T/F 26 10-05-2005 05:07:03 3.3 C 5.58 g/m*3 3.3 C 0 km/h
27 10-05-2005 05:19:02 3 C 5.47 g/m*3 3 C 0 km/h
28 10-05-2005 05:31:02 3.3 C 5.58 g/m*3 3.3 C 0 km/h
29 10-05-2005 05:43:02 3.2 C 5.54 g/m*3 3.2 C 0 km/h
30 10-05-2005 05:55:01 3.1 C 5.51 g/m*3 3.1 C 0 km/h
31 10-05-2005 06:07:01 3.2 C 5.54 g/m*3 3.2 C 0 km/h
32 10-05-2005 06:19:01 3.2 C 5.54 g/m*3 3.2 C 0 km/h
33 10-05-2005 06:31:02 3.2 C 5.54 g/m*3 3.2 C 0 km/h
34 10-05-2005 06:43:02 3.4 C 5.62 g/m*3 3.4 C 0 km/h
35 10-05-2005 06:55:01 3.6 C 5.69 g/m*3 3.6 C 0 km/h
36 10-05-2005 07:07:01 3.5 C 5.66 g/m*3 3.5 C 0 km/h
37 10-05-2005 07:19:01 3.5 C 5.66 g/m*3 3.5 C 0 km/h
38 10-05-2005 07:31:02 3.8 C 5.77 g/m*3 3.8 C 0 km/h
39 10-05-2005 07:43:02 4.2 C 5.86 g/m*3 4.2 C 0 km/h
40 10-05-2005 07:55:02 4.4 C 5.81 g/m*3 4.4 C 0 km/h
41 10-05-2005 08:07:02 4.7 C 5.86 g/m*3 4.7 C 0 km/h
42 10-05-2005 08:19:01 5.2 C 5.78 g/m*3 5.2 C 0 km/h
43 10-05-2005 08:31:02 6 C 5.66 g/m*3 6 C 0 km/h
44 10-05-2005 08:43:02 6.1 C 5.7 g/m*3 6.1 C 0 km/h
45 10-05-2005 08:55:02 6.5 C 5.77 g/m*3 6.5 C 0 km/h
46 10-05-2005 09:07:02 6.9 C 5.77 g/m*3 6.9 C 0 km/h
47 10-05-2005 09:19:01 7.5 C 5.76 g/m*3 7.5 C 0 km/h
48 10-05-2005 09:31:01 7.9 C 5.59 g/m*3 7.9 C 0 km/h
49 10-05-2005 09:43:01 8.5 C 5.72 g/m*3 8.5 C 0 km/h
50 10-05-2005 09:55:02 9.6 C 5.77 g/m*3 9.6 C 0 km/h
Sensor: Nr:Datum:Temp:Abs-Feuchte:Windchill:Wind:
Aussen-T/F 51 10-05-2005 10:07:02 9.1 C 5.15 g/m*3 9.1 C 0 km/h
52 10-05-2005 10:19:02 8.8 C 4.87 g/m*3 8.8 C 0 km/h
53 10-05-2005 10:31:02 9.3 C 4.4 g/m*3 9.3 C 0 km/h
54 10-05-2005 10:43:02 9.3 C 4.4 g/m*3 9.3 C 0 km/h
55 10-05-2005 10:55:01 9.7 C 4.52 g/m*3 9.7 C 0 km/h
56 10-05-2005 11:07:02 9.7 C 4.43 g/m*3 9.7 C 0 km/h
57 10-05-2005 11:19:01 10.4 C 4.63 g/m*3 10.4 C 0 km/h
58 10-05-2005 11:31:01 10.5 C 4.17 g/m*3 10.5 C 0 km/h
59 10-05-2005 11:43:01 10.8 C 4.45 g/m*3 10.8 C 0 km/h
60 10-05-2005 11:55:03 12 C 4.26 g/m*3 12 C 0 km/h
61 10-05-2005 12:07:02 12 C 4.26 g/m*3 12 C 0 km/h
62 10-05-2005 12:19:01 12.1 C 4.08 g/m*3 12.1 C 0 km/h
63 10-05-2005 12:31:03 12.4 C 4.26 g/m*3 12.4 C 0 km/h
64 10-05-2005 12:43:03 12.5 C 4.18 g/m*3 12.5 C 0 km/h
65 10-05-2005 12:55:03 12.5 C 4.18 g/m*3 12.5 C 0 km/h
66 10-05-2005 13:07:03 12.9 C 3.94 g/m*3 12.9 C 0 km/h
67 10-05-2005 13:19:03 13.7 C 4.03 g/m*3 13.7 C 0 km/h
68 10-05-2005 13:31:02 12.4 C 4.15 g/m*3 12.4 C 0 km/h
69 10-05-2005 13:43:02 11.5 C 4.34 g/m*3 11.5 C 0 km/h
70 10-05-2005 13:55:02 13 C 3.97 g/m*3 13 C 0 km/h
71 10-05-2005 14:07:01 13.5 C 4.09 g/m*3 13.5 C 0 km/h
72 10-05-2005 14:19:01 14 C 3.86 g/m*3 14 C 0 km/h
73 10-05-2005 14:31:02 13.5 C 3.63 g/m*3 13.5 C 0 km/h
74 10-05-2005 14:43:02 14.4 C 3.46 g/m*3 14.4 C 0 km/h
75 10-05-2005 14:55:02 14.1 C 3.28 g/m*3 14.1 C 0 km/h
Sensor: Nr:Datum:Temp:Abs-Feuchte:Windchill:Wind:
Aussen-T/F 76 10-05-2005 15:07:02 14.7 C 3.4 g/m*3 14.7 C 0 km/h
77 10-05-2005 15:19:02 14.7 C 3.53 g/m*3 14.7 C 0 km/h
78 10-05-2005 15:31:02 13.7 C 3.43 g/m*3 13.7 C 0 km/h
79 10-05-2005 15:43:03 15.1 C 3.35 g/m*3 15.1 C 0 km/h
80 10-05-2005 15:55:02 15.1 C 2.84 g/m*3 15.1 C 0 km/h
81 10-05-2005 16:07:01 15.6 C 2.66 g/m*3 15.6 C 0 km/h
82 10-05-2005 16:19:01 16.1 C 2.74 g/m*3 16.1 C 0 km/h
83 10-05-2005 16:31:02 16.2 C 3.31 g/m*3 16.2 C 0 km/h
84 10-05-2005 16:43:02 16.1 C 2.74 g/m*3 16.1 C 0 km/h
85 10-05-2005 16:55:02 15 C 3.46 g/m*3 15 C 0 km/h
86 10-05-2005 17:07:03 16 C 3.81 g/m*3 16 C 0 km/h
87 10-05-2005 17:19:02 15.6 C 3.59 g/m*3 15.6 C 0 km/h
88 10-05-2005 17:31:02 14.9 C 3.82 g/m*3 14.9 C 0 km/h
89 10-05-2005 17:43:02 15.1 C 3.74 g/m*3 15.1 C 0 km/h
90 10-05-2005 17:55:02 14.8 C 4.05 g/m*3 14.8 C 0 km/h
91 10-05-2005 18:07:02 14.2 C 4.03 g/m*3 14.2 C 0 km/h
92 10-05-2005 18:19:02 14.5 C 4.1 g/m*3 14.5 C 0 km/h
93 10-05-2005 18:31:03 15.7 C 4.01 g/m*3 15.7 C 0 km/h
94 10-05-2005 18:43:03 16.3 C 4.16 g/m*3 16.3 C 0 km/h
95 10-05-2005 18:55:02 15.7 C 4.15 g/m*3 15.7 C 0 km/h
96 10-05-2005 19:07:02 13.8 C 5.12 g/m*3 13.8 C 0 km/h
97 10-05-2005 19:19:02 13.1 C 5.25 g/m*3 13.1 C 0 km/h
98 10-05-2005 19:31:02 12 C 5.12 g/m*3 12 C 0 km/h
99 10-05-2005 19:43:02 11.9 C 5.61 g/m*3 11.9 C 0 km/h
100 10-05-2005 19:55:01 11.5 C 5.58 g/m*3 11.5 C 0 km/h
Sensor: Nr:Datum:Temp:Abs-Feuchte:Windchill:Wind:
Aussen-T/F 101 10-05-2005 20:07:01 11.4 C 5.44 g/m*3 11.4 C 0 km/h
102 10-05-2005 20:19:02 11.7 C 5.44 g/m*3 11.7 C 0 km/h
103 10-05-2005 20:31:02 12 C 5.44 g/m*3 12 C 0 km/h
104 10-05-2005 20:43:02 11.4 C 5.34 g/m*3 11.4 C 0 km/h
105 10-05-2005 20:55:02 10.7 C 5.3 g/m*3 10.7 C 0 km/h
106 10-05-2005 21:07:02 10.3 C 5.36 g/m*3 10.3 C 0 km/h
107 10-05-2005 21:19:02 10 C 5.45 g/m*3 10 C 0 km/h
108 10-05-2005 21:31:03 9.6 C 5.5 g/m*3 9.6 C 0 km/h
109 10-05-2005 21:43:03 9.5 C 5.55 g/m*3 9.5 C 0 km/h
110 10-05-2005 21:55:02 9.7 C 5.72 g/m*3 9.7 C 0 km/h
111 10-05-2005 22:07:03 9.5 C 5.64 g/m*3 9.5 C 0 km/h
112 10-05-2005 22:19:02 9.3 C 5.57 g/m*3 9.3 C 0 km/h
113 10-05-2005 22:31:02 9.3 C 5.66 g/m*3 9.3 C 0 km/h
114 10-05-2005 22:43:02 8.9 C 5.78 g/m*3 8.9 C 0 km/h
115 10-05-2005 22:55:01 8.9 C 5.78 g/m*3 8.9 C 0 km/h
116 10-05-2005 23:07:02 9 C 5.82 g/m*3 9 C 0 km/h
117 10-05-2005 23:19:02 9 C 5.91 g/m*3 9 C 0 km/h
118 10-05-2005 23:31:01 8.9 C 5.78 g/m*3 8.9 C 0 km/h
119 10-05-2005 23:43:01 9.1 C 5.94 g/m*3 9.1 C 0 km/h
120 10-05-2005 23:55:02 9 C 5.82 g/m*3 9 C 0 km/h
121 11-05-2005 00:07:02 8.6 C 5.84 g/m*3 8.6 C 0 km/h
122 11-05-2005 00:19:03 8.1 C 5.82 g/m*3 8.1 C 0 km/h
123 11-05-2005 00:31:03 7.7 C 5.84 g/m*3 7.7 C 0 km/h
124 11-05-2005 00:43:03 8 C 5.87 g/m*3 8 C 0 km/h
125 11-05-2005 00:55:02 8.1 C 5.74 g/m*3 8.1 C 0 km/h
Sensor: Nr:Datum:Temp:Abs-Feuchte:Windchill:Wind:
Aussen-T/F 126 11-05-2005 01:07:01 7.8 C 5.79 g/m*3 7.8 C 0 km/h
127 11-05-2005 01:19:01 7.5 C 5.84 g/m*3 7.5 C 0 km/h
128 11-05-2005 01:31:01 7.6 C 5.88 g/m*3 7.6 C 0 km/h
129 11-05-2005 01:43:01 7.9 C 6 g/m*3 7.9 C 0 km/h
130 11-05-2005 01:55:02 8 C 5.95 g/m*3 8 C 0 km/h
131 11-05-2005 02:07:02 8.1 C 5.99 g/m*3 8.1 C 0 km/h
132 11-05-2005 02:19:02 7.9 C 6 g/m*3 7.9 C 0 km/h
133 11-05-2005 02:31:02 7.8 C 6.04 g/m*3 7.8 C 0 km/h
134 11-05-2005 02:43:02 7.8 C 6.12 g/m*3 7.8 C 0 km/h
135 11-05-2005 02:56:03 7.8 C 6.2 g/m*3 7.8 C 0 km/h
136 11-05-2005 03:08:04 7.8 C 6.28 g/m*3 7.8 C 0 km/h
137 11-05-2005 03:20:04 7.8 C 6.28 g/m*3 7.8 C 0 km/h
138 11-05-2005 03:32:02 7.5 C 6.24 g/m*3 7.5 C 0 km/h
139 11-05-2005 03:44:02 7.8 C 6.37 g/m*3 7.8 C 0 km/h
140 11-05-2005 03:56:02 7.6 C 6.28 g/m*3 7.6 C 0 km/h
141 11-05-2005 04:08:02 7.4 C 6.2 g/m*3 7.4 C 0 km/h
142 11-05-2005 04:20:02 7.3 C 6.24 g/m*3 7.3 C 0 km/h
143 11-05-2005 04:32:02 7 C 6.2 g/m*3 7 C 0 km/h
144 11-05-2005 04:44:02 6.9 C 6.24 g/m*3 6.9 C 0 km/h
145 11-05-2005 04:56:03 6.8 C 6.27 g/m*3 6.8 C 0 km/h
146 11-05-2005 05:08:02 6.8 C 6.19 g/m*3 6.8 C 0 km/h
147 11-05-2005 05:20:03 6.9 C 6.24 g/m*3 6.9 C 0 km/h
148 11-05-2005 05:32:02 6.7 C 6.08 g/m*3 6.7 C 0 km/h
149 11-05-2005 05:44:02 6.7 C 6.08 g/m*3 6.7 C 0 km/h
150 11-05-2005 05:56:02 6.7 C 6 g/m*3 6.7 C 0 km/h
Sensor: Nr:Datum:Temp:Abs-Feuchte:Windchill:Wind:
Aussen-T/F 151 11-05-2005 06:08:02 6.7 C 6 g/m*3 6.7 C 0 km/h
152 11-05-2005 06:20:02 6.8 C 6.04 g/m*3 6.8 C 0 km/h
153 11-05-2005 06:32:02 6.9 C 5.93 g/m*3 6.9 C 0 km/h
154 11-05-2005 06:44:02 6.8 C 5.89 g/m*3 6.8 C 0 km/h
155 11-05-2005 06:56:01 6.5 C 5.85 g/m*3 6.5 C 0 km/h
156 11-05-2005 07:08:02 6.5 C 5.92 g/m*3 6.5 C 0 km/h
157 11-05-2005 07:20:02 6.6 C 5.89 g/m*3 6.6 C 0 km/h
158 11-05-2005 07:32:02 7 C 5.97 g/m*3 7 C 0 km/h
159 11-05-2005 07:44:02 7.2 C 5.89 g/m*3 7.2 C 0 km/h
160 11-05-2005 07:56:02 7.2 C 5.81 g/m*3 7.2 C 0 km/h
161 11-05-2005 08:08:02 7.1 C 5.69 g/m*3 7.1 C 0 km/h
162 11-05-2005 08:20:03 7.6 C 5.72 g/m*3 7.6 C 0 km/h
163 11-05-2005 08:32:02 7.9 C 5.59 g/m*3 7.9 C 0 km/h
164 11-05-2005 08:44:02 8.1 C 5.57 g/m*3 8.1 C 0 km/h
165 11-05-2005 08:56:02 8.1 C 5.49 g/m*3 8.1 C 0 km/h
166 11-05-2005 09:08:02 8.1 C 5.49 g/m*3 8.1 C 0 km/h
167 11-05-2005 09:20:02 8.2 C 5.44 g/m*3 8.2 C 0 km/h
168 11-05-2005 09:32:02 8.7 C 5.45 g/m*3 8.7 C 0 km/h
169 11-05-2005 09:44:02 9.4 C 5.34 g/m*3 9.4 C 0 km/h
170 11-05-2005 09:56:02 10 C 5.17 g/m*3 10 C 0 km/h
171 11-05-2005 10:08:02 9.9 C 5.14 g/m*3 9.9 C 0 km/h
172 11-05-2005 10:20:02 11.3 C 5.41 g/m*3 11.3 C 0 km/h
173 11-05-2005 10:32:02 10.4 C 5.01 g/m*3 10.4 C 0 km/h
174 11-05-2005 10:44:02 10.2 C 4.95 g/m*3 10.2 C 0 km/h
175 11-05-2005 10:56:02 10.7 C 4.91 g/m*3 10.7 C 0 km/h
Sensor: Nr:Datum:Temp:Abs-Feuchte:Windchill:Wind:
Aussen-T/F 176 11-05-2005 11:08:01 11.4 C 4.93 g/m*3 11.4 C 0 km/h
177 11-05-2005 11:20:02 11 C 5 g/m*3 11 C 0 km/h
178 11-05-2005 11:32:02 11.5 C 4.85 g/m*3 11.5 C 0 km/h
179 11-05-2005 11:44:02 11.7 C 4.71 g/m*3 11.7 C 0 km/h
180 11-05-2005 11:56:02 11.2 C 4.76 g/m*3 11.2 C 0 km/h
181 11-05-2005 12:08:02 11.7 C 4.71 g/m*3 11.7 C 0 km/h
182 11-05-2005 12:20:02 11.8 C 4.84 g/m*3 11.8 C 0 km/h
183 11-05-2005 12:32:02 11.3 C 4.79 g/m*3 11.3 C 0 km/h
184 11-05-2005 12:44:02 10.7 C 5.01 g/m*3 10.7 C 0 km/h
185 11-05-2005 12:56:02 11 C 5 g/m*3 11 C 0 km/h
186 11-05-2005 13:08:02 11.7 C 5.02 g/m*3 11.7 C 0 km/h
187 11-05-2005 13:20:02 11.7 C 4.92 g/m*3 11.7 C 0 km/h
188 11-05-2005 13:32:02 12 C 4.9 g/m*3 12 C 0 km/h
189 11-05-2005 13:44:02 11.4 C 4.82 g/m*3 11.4 C 0 km/h
190 11-05-2005 13:56:02 11.2 C 4.97 g/m*3 11.2 C 0 km/h
191 11-05-2005 14:08:02 12.1 C 5.04 g/m*3 12.1 C 0 km/h
192 11-05-2005 14:20:02 13 C 4.99 g/m*3 13 C 0 km/h
193 11-05-2005 14:32:03 13.6 C 4.94 g/m*3 13.6 C 0 km/h
194 11-05-2005 14:44:03 13.6 C 4.94 g/m*3 13.6 C 0 km/h
195 11-05-2005 14:56:01 13.9 C 4.68 g/m*3 13.9 C 0 km/h
196 11-05-2005 15:08:02 15.4 C 4.99 g/m*3 15.4 C 0 km/h
197 11-05-2005 15:20:01 15.2 C 4.67 g/m*3 15.2 C 0 km/h
198 11-05-2005 15:32:01 14.2 C 4.88 g/m*3 14.2 C 0 km/h
199 11-05-2005 15:44:01 14 C 4.82 g/m*3 14 C 0 km/h
200 11-05-2005 15:56:02 13.8 C 4.77 g/m*3 13.8 C 0 km/h
Sensor: Nr:Datum:Temp:Abs-Feuchte:Windchill:Wind:
Aussen-T/F 201 11-05-2005 16:08:02 14.5 C 4.48 g/m*3 14.5 C 0 km/h
202 11-05-2005 16:20:02 15.7 C 4.28 g/m*3 15.7 C 0 km/h
203 11-05-2005 16:32:02 16.8 C 4.58 g/m*3 16.8 C 0 km/h
204 11-05-2005 16:44:02 18 C 4.61 g/m*3 18 C 0 km/h
205 11-05-2005 16:56:02 16.8 C 4.72 g/m*3 16.8 C 0 km/h
206 11-05-2005 17:08:03 18.2 C 4.97 g/m*3 18.2 C 0 km/h
207 11-05-2005 17:20:02 17.6 C 4.5 g/m*3 17.6 C 0 km/h
208 11-05-2005 17:32:02 17.5 C 4.32 g/m*3 17.5 C 0 km/h
209 11-05-2005 17:44:02 17.6 C 4.2 g/m*3 17.6 C 0 km/h
210 11-05-2005 17:56:02 16.9 C 4.31 g/m*3 16.9 C 0 km/h
211 11-05-2005 18:08:02 17 C 4.49 g/m*3 17 C 0 km/h
212 11-05-2005 18:20:02 17.2 C 4.83 g/m*3 17.2 C 0 km/h
213 11-05-2005 18:32:02 17.4 C 4.74 g/m*3 17.4 C 0 km/h
214 11-05-2005 18:44:03 16.5 C 4.91 g/m*3 16.5 C 0 km/h
215 11-05-2005 18:56:02 15.8 C 4.71 g/m*3 15.8 C 0 km/h
216 11-05-2005 19:08:03 15.4 C 4.34 g/m*3 15.4 C 0 km/h
217 11-05-2005 19:20:02 15.3 C 4.44 g/m*3 15.3 C 0 km/h
218 11-05-2005 19:32:02 15.5 C 4.49 g/m*3 15.5 C 0 km/h
219 11-05-2005 19:44:02 15.5 C 4.49 g/m*3 15.5 C 0 km/h
220 11-05-2005 19:56:03 16 C 4.5 g/m*3 16 C 0 km/h
221 11-05-2005 20:08:02 15.4 C 4.47 g/m*3 15.4 C 0 km/h
222 11-05-2005 20:20:02 15.2 C 4.54 g/m*3 15.2 C 0 km/h
223 11-05-2005 20:32:03 14.8 C 4.94 g/m*3 14.8 C 0 km/h
224 11-05-2005 20:44:03 13.8 C 5 g/m*3 13.8 C 0 km/h
225 11-05-2005 20:56:01 12.7 C 5.34 g/m*3 12.7 C 0 km/h
Sensor: Nr:Datum:Temp:Abs-Feuchte:Windchill:Wind:
Aussen-T/F 226 11-05-2005 21:08:02 11.7 C 5.33 g/m*3 11.7 C 0 km/h
227 11-05-2005 21:20:02 10.9 C 5.47 g/m*3 10.9 C 0 km/h
228 11-05-2005 21:32:02 10.3 C 5.36 g/m*3 10.3 C 0 km/h
229 11-05-2005 21:44:02 9.9 C 5.32 g/m*3 9.9 C 0 km/h
230 11-05-2005 21:56:01 9.5 C 5.19 g/m*3 9.5 C 0 km/h
231 11-05-2005 22:08:02 9.4 C 5.34 g/m*3 9.4 C 0 km/h
232 11-05-2005 22:20:02 9.2 C 5.36 g/m*3 9.2 C 0 km/h
233 11-05-2005 22:32:02 9.1 C 5.5 g/m*3 9.1 C 0 km/h
234 11-05-2005 22:44:02 8.9 C 5.52 g/m*3 8.9 C 0 km/h
235 11-05-2005 22:56:01 8.6 C 5.59 g/m*3 8.6 C 0 km/h
236 11-05-2005 23:08:02 8.2 C 5.69 g/m*3 8.2 C 0 km/h
237 11-05-2005 23:20:01 8.1 C 5.66 g/m*3 8.1 C 0 km/h
238 11-05-2005 23:32:01 7.9 C 5.75 g/m*3 7.9 C 0 km/h
239 11-05-2005 23:44:01 7.7 C 5.76 g/m*3 7.7 C 0 km/h
240 11-05-2005 23:56:02 7.5 C 5.76 g/m*3 7.5 C 0 km/h
241 12-05-2005 00:08:02 7.2 C 5.73 g/m*3 7.2 C 0 km/h
242 12-05-2005 00:20:03 7 C 5.73 g/m*3 7 C 0 km/h
243 12-05-2005 00:32:03 6.8 C 5.81 g/m*3 6.8 C 0 km/h
244 12-05-2005 00:44:03 6.5 C 5.85 g/m*3 6.5 C 0 km/h
245 12-05-2005 00:56:02 6.4 C 5.81 g/m*3 6.4 C 0 km/h
246 12-05-2005 01:08:02 6.2 C 5.81 g/m*3 6.2 C 0 km/h
247 12-05-2005 01:20:01 6 C 5.81 g/m*3 6 C 0 km/h
248 12-05-2005 01:32:02 5.8 C 5.87 g/m*3 5.8 C 0 km/h
249 12-05-2005 01:44:02 5.7 C 5.76 g/m*3 5.7 C 0 km/h
250 12-05-2005 01:56:03 5.6 C 5.73 g/m*3 5.6 C 0 km/h
Sensor: Nr:Datum:Temp:Abs-Feuchte:Windchill:Wind:
Aussen-T/F 251 12-05-2005 02:08:02 5.5 C 5.76 g/m*3 5.5 C 0 km/h
252 12-05-2005 02:20:02 5.3 C 5.75 g/m*3 5.3 C 0 km/h
253 12-05-2005 02:32:03 5.1 C 5.61 g/m*3 5.1 C 0 km/h
254 12-05-2005 02:44:03 5 C 5.64 g/m*3 5 C 0 km/h
255 12-05-2005 02:57:03 4.9 C 5.67 g/m*3 4.9 C 0 km/h
256 12-05-2005 03:09:03 4.8 C 5.63 g/m*3 4.8 C 0 km/h
257 12-05-2005 03:21:04 4.7 C 5.66 g/m*3 4.7 C 0 km/h
258 12-05-2005 03:33:02 4.4 C 5.55 g/m*3 4.4 C 0 km/h
259 12-05-2005 03:45:02 4.3 C 5.58 g/m*3 4.3 C 0 km/h
260 12-05-2005 03:57:02 4.2 C 5.54 g/m*3 4.2 C 0 km/h
261 12-05-2005 04:09:02 4.2 C 5.54 g/m*3 4.2 C 0 km/h
262 12-05-2005 04:21:02 3.9 C 5.49 g/m*3 3.9 C 0 km/h
263 12-05-2005 04:33:02 3.8 C 5.52 g/m*3 3.8 C 0 km/h
264 12-05-2005 04:45:02 3.7 C 5.48 g/m*3 3.7 C 0 km/h
265 12-05-2005 04:57:02 3.5 C 5.41 g/m*3 3.5 C 0 km/h
266 12-05-2005 05:09:02 3.4 C 5.37 g/m*3 3.4 C 0 km/h
267 12-05-2005 05:21:02 3.4 C 5.37 g/m*3 3.4 C 0 km/h
268 12-05-2005 05:33:02 3.3 C 5.4 g/m*3 3.3 C 0 km/h
269 12-05-2005 05:45:01 3.2 C 5.36 g/m*3 3.2 C 0 km/h
270 12-05-2005 05:57:01 3.2 C 5.36 g/m*3 3.2 C 0 km/h
271 12-05-2005 06:09:02 3.2 C 5.36 g/m*3 3.2 C 0 km/h
272 12-05-2005 06:21:01 3.2 C 5.36 g/m*3 3.2 C 0 km/h
273 12-05-2005 06:33:01 3.1 C 5.39 g/m*3 3.1 C 0 km/h
274 12-05-2005 06:45:01 3.1 C 5.45 g/m*3 3.1 C 0 km/h
275 12-05-2005 06:57:01 3.2 C 5.48 g/m*3 3.2 C 0 km/h
Sensor: Nr:Datum:Temp:Abs-Feuchte:Windchill:Wind:
Aussen-T/F 276 12-05-2005 07:09:02 3.3 C 5.52 g/m*3 3.3 C 0 km/h
277 12-05-2005 07:21:02 3.5 C 5.66 g/m*3 3.5 C 0 km/h
278 12-05-2005 07:33:02 3.8 C 5.77 g/m*3 3.8 C 0 km/h
279 12-05-2005 07:45:02 3.8 C 5.77 g/m*3 3.8 C 0 km/h
280 12-05-2005 07:57:02 4.2 C 5.93 g/m*3 4.2 C 0 km/h
281 12-05-2005 08:09:02 4.5 C 6.05 g/m*3 4.5 C 0 km/h
282 12-05-2005 08:21:02 4.9 C 6.21 g/m*3 4.9 C 0 km/h
283 12-05-2005 08:33:02 5.3 C 6.31 g/m*3 5.3 C 0 km/h
284 12-05-2005 08:45:02 5.6 C 6.43 g/m*3 5.6 C 0 km/h
285 12-05-2005 08:57:02 6.2 C 6.55 g/m*3 6.2 C 0 km/h
286 12-05-2005 09:09:02 6.9 C 6.77 g/m*3 6.9 C 0 km/h
287 12-05-2005 09:21:02 8 C 6.37 g/m*3 8 C 0 km/h
288 12-05-2005 09:33:02 8.8 C 6.27 g/m*3 8.8 C 0 km/h
289 12-05-2005 09:45:01 9.4 C 6.06 g/m*3 9.4 C 0 km/h
290 12-05-2005 09:57:01 10 C 5.83 g/m*3 10 C 0 km/h
291 12-05-2005 10:09:02 10.5 C 5.63 g/m*3 10.5 C 0 km/h
292 12-05-2005 10:21:01 11.2 C 5.68 g/m*3 11.2 C 0 km/h
293 12-05-2005 10:33:02 11.8 C 5.58 g/m*3 11.8 C 0 km/h
294 12-05-2005 10:45:02 12.2 C 5.5 g/m*3 12.2 C 0 km/h
295 12-05-2005 10:57:02 12.7 C 5.34 g/m*3 12.7 C 0 km/h
296 12-05-2005 11:09:02 13.2 C 5.17 g/m*3 13.2 C 0 km/h
297 12-05-2005 11:21:02 13.9 C 5.51 g/m*3 13.9 C 0 km/h
298 12-05-2005 11:33:02 14 C 5.07 g/m*3 14 C 0 km/h
299 12-05-2005 11:45:01 13.9 C 5.04 g/m*3 13.9 C 0 km/h
300 12-05-2005 11:57:01 14.8 C 5.19 g/m*3 14.8 C 0 km/h
Sensor: Nr:Datum:Temp:Abs-Feuchte:Windchill:Wind:
Aussen-T/F 301 12-05-2005 12:09:01 15.6 C 4.92 g/m*3 15.6 C 0 km/h
302 12-05-2005 12:21:02 16.4 C 4.89 g/m*3 16.4 C 0 km/h
303 12-05-2005 12:33:02 17.1 C 4.8 g/m*3 17.1 C 0 km/h
304 12-05-2005 12:45:01 17.2 C 4.54 g/m*3 17.2 C 0 km/h
305 12-05-2005 12:57:01 17.7 C 4.53 g/m*3 17.7 C 0 km/h
306 12-05-2005 13:09:02 18.7 C 4.48 g/m*3 18.7 C 0 km/h
307 12-05-2005 13:21:02 18.9 C 4.05 g/m*3 18.9 C 0 km/h
308 12-05-2005 13:33:01 19.1 C 3.93 g/m*3 19.1 C 0 km/h
309 12-05-2005 13:45:02 18.8 C 3.7 g/m*3 18.8 C 0 km/h
310 12-05-2005 13:57:02 18.8 C 4.03 g/m*3 18.8 C 0 km/h
311 12-05-2005 14:09:02 18.5 C 4.11 g/m*3 18.5 C 0 km/h
312 12-05-2005 14:21:02 18.7 C 4 g/m*3 18.7 C 0 km/h
313 12-05-2005 14:33:02 19.1 C 3.77 g/m*3 19.1 C 0 km/h
314 12-05-2005 14:45:02 19.3 C 3.81 g/m*3 19.3 C 0 km/h
315 12-05-2005 14:57:02 20 C 3.63 g/m*3 20 C 0 km/h
316 12-05-2005 15:09:02 19.9 C 3.44 g/m*3 19.9 C 0 km/h
317 12-05-2005 15:21:03 21.3 C 3.91 g/m*3 21.3 C 0 km/h
318 12-05-2005 15:33:02 21.2 C 3.71 g/m*3 21.2 C 0 km/h
319 12-05-2005 15:45:02 21.2 C 3.71 g/m*3 21.2 C 0 km/h
320 12-05-2005 15:57:02 21.9 C 3.86 g/m*3 21.9 C 0 km/h
321 12-05-2005 16:09:02 21.7 C 3.82 g/m*3 21.7 C 0 km/h
322 12-05-2005 16:21:02 22.5 C 3.99 g/m*3 22.5 C 0 km/h
323 12-05-2005 16:33:02 22.4 C 3.97 g/m*3 22.4 C 0 km/h
324 12-05-2005 16:45:02 23 C 4.11 g/m*3 23 C 0 km/h
325 12-05-2005 16:57:02 22.9 C 4.09 g/m*3 22.9 C 0 km/h
Sensor: Nr:Datum:Temp:Abs-Feuchte:Windchill:Wind:
Aussen-T/F 326 12-05-2005 17:09:02 23.3 C 4.18 g/m*3 23.3 C 0 km/h
327 12-05-2005 17:21:02 23.1 C 4.13 g/m*3 23.1 C 0 km/h
328 12-05-2005 17:33:02 22.8 C 4.06 g/m*3 22.8 C 0 km/h
329 12-05-2005 17:45:02 22.7 C 4.04 g/m*3 22.7 C 0 km/h
330 12-05-2005 17:57:02 22.8 C 4.06 g/m*3 22.8 C 0 km/h
331 12-05-2005 18:09:03 23 C 4.11 g/m*3 23 C 0 km/h
332 12-05-2005 18:21:03 22.4 C 3.97 g/m*3 22.4 C 0 km/h
333 12-05-2005 18:33:03 22.5 C 3.99 g/m*3 22.5 C 0 km/h
334 12-05-2005 18:45:02 22.9 C 4.09 g/m*3 22.9 C 0 km/h
335 12-05-2005 18:57:02 22.6 C 4.02 g/m*3 22.6 C 0 km/h
336 12-05-2005 19:09:02 22 C 3.88 g/m*3 22 C 0 km/h
337 12-05-2005 19:21:02 21.5 C 3.77 g/m*3 21.5 C 0 km/h
338 12-05-2005 19:33:02 20.6 C 3.76 g/m*3 20.6 C 0 km/h
339 12-05-2005 19:45:02 20.2 C 3.67 g/m*3 20.2 C 0 km/h
340 12-05-2005 19:57:02 19.8 C 4.27 g/m*3 19.8 C 0 km/h
341 12-05-2005 20:09:02 19.4 C 4.34 g/m*3 19.4 C 0 km/h
342 12-05-2005 20:21:02 18.7 C 4.16 g/m*3 18.7 C 0 km/h
343 12-05-2005 20:33:02 17.9 C 4.58 g/m*3 17.9 C 0 km/h
344 12-05-2005 20:45:02 17 C 5.06 g/m*3 17 C 0 km/h
345 12-05-2005 20:57:02 16.2 C 5.1 g/m*3 16.2 C 0 km/h
346 12-05-2005 21:09:02 15.3 C 5.09 g/m*3 15.3 C 0 km/h
347 12-05-2005 21:21:01 14.4 C 5.07 g/m*3 14.4 C 0 km/h
348 12-05-2005 21:33:01 13.8 C 5.24 g/m*3 13.8 C 0 km/h
349 12-05-2005 21:45:02 13.4 C 5.23 g/m*3 13.4 C 0 km/h
350 12-05-2005 21:57:02 13.3 C 5.2 g/m*3 13.3 C 0 km/h
Sensor: Nr:Datum:Temp:Abs-Feuchte:Windchill:Wind:
Aussen-T/F 351 12-05-2005 22:09:03 12.9 C 5.3 g/m*3 12.9 C 0 km/h
352 12-05-2005 22:21:02 12.6 C 5.2 g/m*3 12.6 C 0 km/h
353 12-05-2005 22:33:02 12.4 C 5.24 g/m*3 12.4 C 0 km/h
354 12-05-2005 22:45:01 12.1 C 5.25 g/m*3 12.1 C 0 km/h
355 12-05-2005 22:57:01 12.1 C 5.36 g/m*3 12.1 C 0 km/h
356 12-05-2005 23:09:01 11.8 C 5.37 g/m*3 11.8 C 0 km/h
357 12-05-2005 23:21:02 11.3 C 5.3 g/m*3 11.3 C 0 km/h
358 12-05-2005 23:33:02 11.4 C 5.23 g/m*3 11.4 C 0 km/h
359 12-05-2005 23:45:01 11.4 C 5.23 g/m*3 11.4 C 0 km/h
360 12-05-2005 23:57:01 11.2 C 5.17 g/m*3 11.2 C 0 km/h

Legende:
   Min
   Max


Maximal/Minimal-Werte vom 10.05.2005 - 12.05.2005

Sensor Min Max Avg
Temp
(Aussen-T/F)
3 °C
10-05-2005  04:31:03
23.3 °C
12-05-2005  17:09:02
10.68 °C
Abs-Feuchte
(Aussen-T/F)
2.66 g/m*3
10-05-2005  16:07:01
6.77 g/m*3
12-05-2005  09:09:02
5.12 g/m*3
Windchill
(Aussen-T/F)
3 C
10-05-2005  04:31:03
23.3 C
12-05-2005  17:09:02
10.65 C

Die Daten stammen von einer Davis Vantage Pro 2 Wetter-Station und werden unter Linux mit der Software wview2wettercgi und aufbereitet. Alle Angaben erfolgen ohne Gewähr für ihre Vollständigkeit oder Richtigkeit.
Kontakt: Rainer Krienke krienke@uni-koblenz.de . Meine Webseiten an der Uni Koblenz oder privat.
Version: $Revision: 0.78 $